createdAt,value
2019-03-23T00:02:16.860Z,49.33
2019-03-23T00:07:23.117Z,51.25
2019-03-23T00:12:32.428Z,45.25
2019-03-23T00:17:41.892Z,47.88
2019-03-23T00:22:46.916Z,48.00
2019-03-23T00:27:55.505Z,50.00
2019-03-23T00:33:04.883Z,50.38
2019-03-23T00:38:14.336Z,52.13
2019-03-23T00:43:25.246Z,53.00
2019-03-23T00:48:35.425Z,52.00
2019-03-23T00:53:39.960Z,49.00
2019-03-23T00:58:49.379Z,51.22
2019-03-23T01:03:53.686Z,51.00
2019-03-23T01:09:01.535Z,52.00
2019-03-23T01:14:13.552Z,48.00
2019-03-23T01:19:21.274Z,50.67
2019-03-23T01:24:30.919Z,50.50
2019-03-23T01:29:40.582Z,53.00
2019-03-23T01:34:50.051Z,50.89
2019-03-23T01:39:57.894Z,52.00
2019-03-23T01:45:08.994Z,51.56
2019-03-23T01:50:13.039Z,53.00
2019-03-23T01:55:23.960Z,52.56
2019-03-23T02:00:34.449Z,55.80
2019-03-23T02:05:41.446Z,55.12
2019-03-23T02:10:51.794Z,52.00
2019-03-23T02:16:01.279Z,51.00
2019-03-23T02:21:10.718Z,51.44
2019-03-23T02:26:17.606Z,50.11
2019-03-23T02:31:25.307Z,50.67
2019-03-23T02:36:34.784Z,54.11
2019-03-23T02:41:42.611Z,54.00
2019-03-23T02:46:52.292Z,51.33
2019-03-23T02:52:01.879Z,53.90
2019-03-23T02:57:12.390Z,53.00
2019-03-23T03:02:21.957Z,52.00
2019-03-23T03:07:41.813Z,51.00
2019-03-23T03:12:40.512Z,49.78
2019-03-23T03:17:49.591Z,46.88
2019-03-23T03:22:58.803Z,46.37
2019-03-23T03:28:07.207Z,45.33
2019-03-23T03:33:15.476Z,45.50
2019-03-23T03:38:23.772Z,45.22
2019-03-23T03:43:31.348Z,47.00
2019-03-23T03:48:39.643Z,46.44
2019-03-23T03:53:45.494Z,46.00
2019-03-23T03:58:52.196Z,47.11
2019-03-23T04:03:59.852Z,46.88
2019-03-23T04:09:09.010Z,47.38
2019-03-23T04:14:12.222Z,44.00
2019-03-23T04:19:19.640Z,44.22
2019-03-23T04:24:28.967Z,45.00
2019-03-23T04:29:38.168Z,48.50
2019-03-23T04:34:47.345Z,45.88
2019-03-23T04:39:56.588Z,45.58
2019-03-23T04:45:01.722Z,43.57
2019-03-23T04:50:08.514Z,41.00
2019-03-23T04:55:16.603Z,42.89
2019-03-23T05:00:21.692Z,40.83
2019-03-23T05:05:30.551Z,40.56
2019-03-23T05:10:38.238Z,43.22
2019-03-23T05:15:44.172Z,43.50
2019-03-23T05:20:49.231Z,41.86
2019-03-23T05:25:58.436Z,41.89
2019-03-23T05:31:04.194Z,38.00
2019-03-23T05:36:10.786Z,40.12
2019-03-23T05:41:20.518Z,39.67
2019-03-23T05:46:27.886Z,35.13
2019-03-23T05:51:35.938Z,39.00
2019-03-23T05:56:44.991Z,38.67
2019-03-23T06:01:52.291Z,39.00
2019-03-23T06:06:59.699Z,43.00
2019-03-23T06:12:04.315Z,42.00
2019-03-23T06:17:15.011Z,39.42
2019-03-23T06:22:24.743Z,38.00
2019-03-23T06:27:32.799Z,35.78
2019-03-23T06:32:36.911Z,33.00
2019-03-23T06:37:42.582Z,39.13
2019-03-23T06:42:47.519Z,35.75
2019-03-23T06:47:55.775Z,35.00
2019-03-23T06:53:00.458Z,30.00
2019-03-23T06:58:08.806Z,36.88
2019-03-23T07:03:18.112Z,42.00
2019-03-23T07:08:31.801Z,32.88
2019-03-23T07:13:37.246Z,36.38
2019-03-23T07:18:45.169Z,38.25
2019-03-23T07:23:51.163Z,35.25
2019-03-23T07:28:56.231Z,40.25
2019-03-23T07:34:00.613Z,39.00
2019-03-23T07:39:07.684Z,48.38
2019-03-23T07:44:12.774Z,43.00
2019-03-23T07:49:17.139Z,36.00
2019-03-23T07:54:25.679Z,36.00
2019-03-23T07:59:33.503Z,43.50
2019-03-23T08:04:42.011Z,42.00
2019-03-23T08:09:48.229Z,41.00
2019-03-23T08:14:54.482Z,40.63
2019-03-23T08:20:00.468Z,42.00
2019-03-23T08:25:06.686Z,41.37
2019-03-23T08:30:12.783Z,39.38
2019-03-23T08:35:17.712Z,36.00
2019-03-23T08:40:26.215Z,39.25
2019-03-23T08:45:35.443Z,39.63
2019-03-23T08:50:40.494Z,40.71
2019-03-23T08:55:44.863Z,39.00
2019-03-23T09:00:53.762Z,38.13
2019-03-23T09:06:00.051Z,41.63
2019-03-23T09:11:06.179Z,41.50
2019-03-23T09:16:10.591Z,41.00
2019-03-23T09:21:17.610Z,43.75
2019-03-23T09:26:25.553Z,43.13
2019-03-23T09:31:31.619Z,35.63
2019-03-23T09:36:37.803Z,39.25
2019-03-23T09:41:44.100Z,37.13
2019-03-23T09:46:47.529Z,40.00
2019-03-23T09:51:57.261Z,47.75
2019-03-23T09:57:05.721Z,34.88
2019-03-23T10:02:09.502Z,40.00
2019-03-23T10:07:14.278Z,39.00
2019-03-23T10:12:24.343Z,37.82
2019-03-23T10:17:30.744Z,40.25
2019-03-23T10:22:33.919Z,38.67
2019-03-23T10:27:37.848Z,37.33
2019-03-23T10:32:41.851Z,37.00
2019-03-23T10:37:50.880Z,38.63
2019-03-23T10:42:55.443Z,40.25
2019-03-23T10:48:00.136Z,40.00
2019-03-23T10:53:04.638Z,43.50
2019-03-23T10:58:09.278Z,41.00
2019-03-23T11:03:13.959Z,38.25
2019-03-23T11:08:21.547Z,45.14
2019-03-23T11:13:27.731Z,38.00
2019-03-23T11:18:31.443Z,36.50
2019-03-23T11:23:39.807Z,38.63
2019-03-23T11:28:47.920Z,39.00
2019-03-23T11:33:51.690Z,33.00
2019-03-23T11:38:55.055Z,36.67
2019-03-23T11:44:02.101Z,35.00
2019-03-23T11:49:08.111Z,42.38
2019-03-23T11:54:12.087Z,38.00
2019-03-23T11:59:17.846Z,32.75
2019-03-23T12:04:25.276Z,34.38
2019-03-23T12:09:33.885Z,32.00
2019-03-23T12:14:41.685Z,28.00
2019-03-23T12:19:49.531Z,31.12
2019-03-23T12:24:55.604Z,31.00
2019-03-23T12:30:07.508Z,27.13
2019-03-23T12:35:18.097Z,30.27
2019-03-23T12:40:24.922Z,27.25
2019-03-23T12:45:31.939Z,30.00
2019-03-23T12:50:38.243Z,26.62
2019-03-23T12:55:44.471Z,31.12
2019-03-23T13:00:52.344Z,33.25
2019-03-23T13:05:58.555Z,25.00
2019-03-23T13:11:02.140Z,23.00
2019-03-23T13:16:10.826Z,29.63
2019-03-23T13:21:18.446Z,25.12
2019-03-23T13:26:24.561Z,26.50
2019-03-23T13:31:30.691Z,26.12
2019-03-23T13:36:34.302Z,28.33
2019-03-23T13:41:47.308Z,25.62
2019-03-23T13:46:53.406Z,26.87
2019-03-23T13:51:56.970Z,28.00
2019-03-23T13:57:00.906Z,24.50
2019-03-23T14:02:05.510Z,25.50
2019-03-23T14:07:10.461Z,21.00
2019-03-23T14:12:18.337Z,24.00
2019-03-23T14:17:23.442Z,27.00
2019-03-23T14:22:27.027Z,19.50
2019-03-23T14:27:33.017Z,22.37
2019-03-23T14:32:39.734Z,18.87
2019-03-23T14:37:44.799Z,21.25
2019-03-23T14:42:50.696Z,19.25
2019-03-23T14:47:54.232Z,20.00
2019-03-23T14:53:02.025Z,19.62
2019-03-23T14:58:05.664Z,20.50
2019-03-23T15:03:14.307Z,21.11
2019-03-23T15:08:17.791Z,20.00
2019-03-23T15:13:22.770Z,17.14
2019-03-23T15:18:28.756Z,19.00
2019-03-23T15:23:35.329Z,19.50
2019-03-23T15:28:41.471Z,18.71
2019-03-23T15:33:48.196Z,17.71
2019-03-23T15:38:52.159Z,16.50
2019-03-23T15:43:57.650Z,19.00
2019-03-23T15:49:03.694Z,17.29
2019-03-23T15:54:09.422Z,15.00
2019-03-23T15:59:15.335Z,19.14
2019-03-23T16:04:22.033Z,18.62
2019-03-23T16:09:25.435Z,19.25
2019-03-23T16:14:30.522Z,15.14
2019-03-23T16:19:36.201Z,15.29
2019-03-23T16:24:43.067Z,16.00
2019-03-23T16:29:47.439Z,16.29
2019-03-23T16:34:51.838Z,11.17
2019-03-23T16:39:58.889Z,25.25
2019-03-23T16:45:08.619Z,19.43
2019-03-23T16:50:12.540Z,19.00
2019-03-23T16:55:17.720Z,20.71
2019-03-23T17:00:23.463Z,22.00
2019-03-23T17:05:28.770Z,21.00
2019-03-23T17:10:36.492Z,20.12
2019-03-23T17:15:42.736Z,19.29
2019-03-23T17:20:46.246Z,19.50
2019-03-23T17:25:51.071Z,17.29
2019-03-23T17:30:59.853Z,21.89
2019-03-23T17:36:04.289Z,23.00
2019-03-23T17:41:10.408Z,23.00
2019-03-23T17:46:15.126Z,29.50
2019-03-23T17:51:19.174Z,28.00
2019-03-23T17:56:23.913Z,31.50
2019-03-23T18:01:32.731Z,32.50
2019-03-23T18:06:37.301Z,34.25
2019-03-23T18:11:42.008Z,47.75
2019-03-23T18:16:48.435Z,40.00
2019-03-23T18:21:55.703Z,39.25
2019-03-23T18:26:59.512Z,40.00
2019-03-23T18:32:09.415Z,40.00
2019-03-23T18:37:13.265Z,47.75
2019-03-23T18:42:21.711Z,42.88
2019-03-23T18:47:29.965Z,46.00
2019-03-23T18:52:36.475Z,43.87
2019-03-23T18:57:43.272Z,44.38
2019-03-23T19:02:51.482Z,46.13
2019-03-23T19:07:55.563Z,41.50
2019-03-23T19:13:00.414Z,46.00
2019-03-23T19:18:08.637Z,44.00
2019-03-23T19:23:15.165Z,41.13
2019-03-23T19:28:21.699Z,40.00
2019-03-23T19:33:29.887Z,44.88
2019-03-23T19:38:33.851Z,42.75
2019-03-23T19:43:48.391Z,42.00
2019-03-23T19:48:44.096Z,41.00
2019-03-23T19:53:48.670Z,40.00
2019-03-23T19:58:52.643Z,39.00
2019-03-23T20:03:57.517Z,42.75
2019-03-23T20:09:01.561Z,44.00
2019-03-23T20:14:08.166Z,40.00
2019-03-23T20:19:13.114Z,40.25
2019-03-23T20:24:17.794Z,42.00
2019-03-23T20:29:26.784Z,43.50
2019-03-23T20:34:33.370Z,47.13
2019-03-23T20:39:40.064Z,45.38
2019-03-23T20:44:46.814Z,48.50
2019-03-23T20:49:50.228Z,45.25
2019-03-23T20:55:00.412Z,46.00
2019-03-23T21:00:11.132Z,47.62
2019-03-23T21:05:19.171Z,50.00
2019-03-23T21:10:27.665Z,50.12
2019-03-23T21:15:34.411Z,52.75
2019-03-23T21:20:40.310Z,50.00
2019-03-23T21:25:47.757Z,56.11
2019-03-23T21:30:51.976Z,55.00
2019-03-23T21:35:59.069Z,57.00
2019-03-23T21:41:05.471Z,54.13
2019-03-23T21:46:12.743Z,57.78
2019-03-23T21:51:20.205Z,55.11
2019-03-23T21:56:27.372Z,54.44
2019-03-23T22:01:34.869Z,58.67
2019-03-23T22:06:43.530Z,62.11
2019-03-23T22:11:52.373Z,59.63
2019-03-23T22:16:57.344Z,64.00
2019-03-23T22:22:06.610Z,60.30
2019-03-23T22:27:14.797Z,67.78
2019-03-23T22:32:22.265Z,72.78
2019-03-23T22:37:30.518Z,67.67
2019-03-23T22:42:41.186Z,68.70
2019-03-23T22:47:51.848Z,57.20
2019-03-23T22:53:00.767Z,55.00
2019-03-23T22:58:10.570Z,53.78
2019-03-23T23:03:17.823Z,58.29
2019-03-23T23:08:25.470Z,63.00
2019-03-23T23:13:35.880Z,66.90
2019-03-23T23:18:45.639Z,57.56
2019-03-23T23:23:52.878Z,54.00
2019-03-23T23:28:55.966Z,55.00
2019-03-23T23:34:04.990Z,51.37
2019-03-23T23:39:11.229Z,52.62
2019-03-23T23:44:19.206Z,57.10
2019-03-23T23:49:28.184Z,52.62
2019-03-23T23:54:36.281Z,59.00
2019-03-23T23:59:45.164Z,53.22
